Terminal Aerodrome Forecast
Issued by NWS Jackson, MS

Home | Current Version | Previous Version | Text Only | Print | Product List | Glossary On
Versions: 1 2 3 4 5 6 7 8 9 10 11 12 13 14 15 16
000
FTUS44 KJAN 232332
TAFGLH
TAF
KGLH 232332Z 2400/2424 05005KT P6SM VCSH SCT090 BKN250
     FM241100 00000KT 5SM BR SCT250
     FM241300 00000KT P6SM SCT030 SCT250
     FM241700 04005KT P6SM VCTS SCT030 BKN050CB=

USA.gov is the U.S. government's official web portal to all federal, state and local government web resources and services.